sensor_id;sensor_type;location;lat;lon;timestamp;temperature;humidity
3792;DHT22;1911;53.768;11.474;2023-04-29T00:01:25;7.70;99.90
3792;DHT22;1911;53.768;11.474;2023-04-29T00:03:51;7.70;99.90
3792;DHT22;1911;53.768;11.474;2023-04-29T00:06:16;7.70;99.90
3792;DHT22;1911;53.768;11.474;2023-04-29T00:08:42;7.70;99.90
3792;DHT22;1911;53.768;11.474;2023-04-29T00:11:08;7.70;99.90
3792;DHT22;1911;53.768;11.474;2023-04-29T00:13:35;7.60;99.90
3792;DHT22;1911;53.768;11.474;2023-04-29T00:16:01;7.60;99.90
3792;DHT22;1911;53.768;11.474;2023-04-29T00:18:27;7.70;99.90
3792;DHT22;1911;53.768;11.474;2023-04-29T00:20:52;7.60;99.90
3792;DHT22;1911;53.768;11.474;2023-04-29T00:23:18;7.60;99.90
3792;DHT22;1911;53.768;11.474;2023-04-29T00:25:44;7.60;99.90
3792;DHT22;1911;53.768;11.474;2023-04-29T00:28:09;7.50;99.90
3792;DHT22;1911;53.768;11.474;2023-04-29T00:30:35;7.50;99.90
3792;DHT22;1911;53.768;11.474;2023-04-29T00:33:01;7.40;99.90
3792;DHT22;1911;53.768;11.474;2023-04-29T00:35:27;7.40;99.90
3792;DHT22;1911;53.768;11.474;2023-04-29T00:37:52;7.40;99.90
3792;DHT22;1911;53.768;11.474;2023-04-29T00:40:18;7.40;99.90
3792;DHT22;1911;53.768;11.474;2023-04-29T00:42:43;7.40;99.90
3792;DHT22;1911;53.768;11.474;2023-04-29T00:45:09;7.40;99.90
3792;DHT22;1911;53.768;11.474;2023-04-29T00:47:38;7.30;99.90
3792;DHT22;1911;53.768;11.474;2023-04-29T00:50:06;7.30;99.90
3792;DHT22;1911;53.768;11.474;2023-04-29T00:52:33;7.30;99.90
3792;DHT22;1911;53.768;11.474;2023-04-29T00:54:59;7.30;99.90
3792;DHT22;1911;53.768;11.474;2023-04-29T00:57:25;7.30;99.90
3792;DHT22;1911;53.768;11.474;2023-04-29T00:59:55;7.40;99.90
3792;DHT22;1911;53.768;11.474;2023-04-29T01:02:22;7.40;99.90
3792;DHT22;1911;53.768;11.474;2023-04-29T01:04:48;7.40;99.90
3792;DHT22;1911;53.768;11.474;2023-04-29T01:07:16;7.50;99.90
3792;DHT22;1911;53.768;11.474;2023-04-29T01:10:12;7.40;99.90
3792;DHT22;1911;53.768;11.474;2023-04-29T01:15:23;7.50;99.90
3792;DHT22;1911;53.768;11.474;2023-04-29T01:17:57;7.50;99.90
3792;DHT22;1911;53.768;11.474;2023-04-29T01:20:25;7.50;99.90
3792;DHT22;1911;53.768;11.474;2023-04-29T01:22:50;7.50;99.90
3792;DHT22;1911;53.768;11.474;2023-04-29T01:25:16;7.50;99.90
3792;DHT22;1911;53.768;11.474;2023-04-29T01:33:08;7.50;99.90
3792;DHT22;1911;53.768;11.474;2023-04-29T01:38:52;7.40;99.90
3792;DHT22;1911;53.768;11.474;2023-04-29T01:41:22;7.40;99.90
3792;DHT22;1911;53.768;11.474;2023-04-29T01:43:55;7.40;99.90
3792;DHT22;1911;53.768;11.474;2023-04-29T01:46:22;7.40;99.90
3792;DHT22;1911;53.768;11.474;2023-04-29T01:48:51;7.30;99.90
3792;DHT22;1911;53.768;11.474;2023-04-29T01:51:16;7.30;99.90
3792;DHT22;1911;53.768;11.474;2023-04-29T01:53:42;7.30;99.90
3792;DHT22;1911;53.768;11.474;2023-04-29T01:56:08;7.30;99.90
3792;DHT22;1911;53.768;11.474;2023-04-29T01:58:34;7.30;99.90
3792;DHT22;1911;53.768;11.474;2023-04-29T02:00:59;7.20;99.90
3792;DHT22;1911;53.768;11.474;2023-04-29T02:03:25;7.20;99.90
3792;DHT22;1911;53.768;11.474;2023-04-29T02:05:51;7.20;99.90
3792;DHT22;1911;53.768;11.474;2023-04-29T02:08:17;7.20;99.90
3792;DHT22;1911;53.768;11.474;2023-04-29T02:10:56;7.30;99.90
3792;DHT22;1911;53.768;11.474;2023-04-29T02:13:22;7.30;99.90
3792;DHT22;1911;53.768;11.474;2023-04-29T02:15:48;7.30;99.90
3792;DHT22;1911;53.768;11.474;2023-04-29T02:18:14;7.30;99.90
3792;DHT22;1911;53.768;11.474;2023-04-29T02:20:39;7.30;99.90
3792;DHT22;1911;53.768;11.474;2023-04-29T02:23:05;7.30;99.90
3792;DHT22;1911;53.768;11.474;2023-04-29T02:25:31;7.30;99.90
3792;DHT22;1911;53.768;11.474;2023-04-29T02:27:56;7.30;99.90
3792;DHT22;1911;53.768;11.474;2023-04-29T02:30:22;7.40;99.90
3792;DHT22;1911;53.768;11.474;2023-04-29T02:32:47;7.40;99.90
3792;DHT22;1911;53.768;11.474;2023-04-29T02:35:13;7.40;99.90
3792;DHT22;1911;53.768;11.474;2023-04-29T02:37:39;7.40;99.90
3792;DHT22;1911;53.768;11.474;2023-04-29T02:40:05;7.40;99.90
3792;DHT22;1911;53.768;11.474;2023-04-29T02:42:31;7.40;99.90
3792;DHT22;1911;53.768;11.474;2023-04-29T02:44:56;7.50;99.90
3792;DHT22;1911;53.768;11.474;2023-04-29T02:47:22;7.40;99.90
3792;DHT22;1911;53.768;11.474;2023-04-29T02:49:48;7.40;99.90
3792;DHT22;1911;53.768;11.474;2023-04-29T02:52:13;7.40;99.90
3792;DHT22;1911;53.768;11.474;2023-04-29T02:54:41;7.40;99.90
3792;DHT22;1911;53.768;11.474;2023-04-29T02:57:07;7.50;99.90
3792;DHT22;1911;53.768;11.474;2023-04-29T02:59:33;7.50;99.90
3792;DHT22;1911;53.768;11.474;2023-04-29T03:01:58;7.50;99.90
3792;DHT22;1911;53.768;11.474;2023-04-29T03:04:24;7.50;99.90
3792;DHT22;1911;53.768;11.474;2023-04-29T03:06:50;7.50;99.90
3792;DHT22;1911;53.768;11.474;2023-04-29T03:09:15;7.50;99.90
3792;DHT22;1911;53.768;11.474;2023-04-29T03:11:41;7.40;99.90
3792;DHT22;1911;53.768;11.474;2023-04-29T03:14:06;7.40;99.90
3792;DHT22;1911;53.768;11.474;2023-04-29T03:16:32;7.40;99.90
3792;DHT22;1911;53.768;11.474;2023-04-29T03:18:58;7.40;99.90
3792;DHT22;1911;53.768;11.474;2023-04-29T03:21:24;7.40;99.90
3792;DHT22;1911;53.768;11.474;2023-04-29T03:23:51;7.40;99.90
3792;DHT22;1911;53.768;11.474;2023-04-29T03:26:17;7.40;99.90
3792;DHT22;1911;53.768;11.474;2023-04-29T03:28:42;7.40;99.90
3792;DHT22;1911;53.768;11.474;2023-04-29T03:31:08;7.40;99.90
3792;DHT22;1911;53.768;11.474;2023-04-29T03:33:36;7.40;99.90
3792;DHT22;1911;53.768;11.474;2023-04-29T03:36:01;7.40;99.90
3792;DHT22;1911;53.768;11.474;2023-04-29T03:38:27;7.40;99.90
3792;DHT22;1911;53.768;11.474;2023-04-29T03:40:53;7.40;99.90
3792;DHT22;1911;53.768;11.474;2023-04-29T03:43:18;7.40;99.90
3792;DHT22;1911;53.768;11.474;2023-04-29T03:45:44;7.30;99.90
3792;DHT22;1911;53.768;11.474;2023-04-29T03:48:09;7.30;99.90
3792;DHT22;1911;53.768;11.474;2023-04-29T03:50:36;7.30;99.90
3792;DHT22;1911;53.768;11.474;2023-04-29T03:53:02;7.30;99.90
3792;DHT22;1911;53.768;11.474;2023-04-29T03:55:27;7.40;99.90
3792;DHT22;1911;53.768;11.474;2023-04-29T03:57:53;7.30;99.90
3792;DHT22;1911;53.768;11.474;2023-04-29T04:00:19;7.30;99.90
3792;DHT22;1911;53.768;11.474;2023-04-29T04:02:44;7.20;99.90
3792;DHT22;1911;53.768;11.474;2023-04-29T04:05:10;7.10;99.90
3792;DHT22;1911;53.768;11.474;2023-04-29T04:07:36;7.10;99.90
3792;DHT22;1911;53.768;11.474;2023-04-29T04:10:02;7.00;99.90
3792;DHT22;1911;53.768;11.474;2023-04-29T04:12:27;7.00;99.90
3792;DHT22;1911;53.768;11.474;2023-04-29T04:14:53;6.90;99.90
3792;DHT22;1911;53.768;11.474;2023-04-29T04:17:19;6.90;99.90
3792;DHT22;1911;53.768;11.474;2023-04-29T04:19:45;6.80;99.90
3792;DHT22;1911;53.768;11.474;2023-04-29T04:22:10;6.80;99.90
3792;DHT22;1911;53.768;11.474;2023-04-29T04:24:37;6.90;99.90
3792;DHT22;1911;53.768;11.474;2023-04-29T04:27:02;6.90;99.90
3792;DHT22;1911;53.768;11.474;2023-04-29T04:29:28;6.80;99.90
3792;DHT22;1911;53.768;11.474;2023-04-29T04:31:53;6.80;99.90
3792;DHT22;1911;53.768;11.474;2023-04-29T04:34:20;6.80;99.90
3792;DHT22;1911;53.768;11.474;2023-04-29T04:36:45;6.80;99.90
3792;DHT22;1911;53.768;11.474;2023-04-29T04:39:11;6.80;99.90
3792;DHT22;1911;53.768;11.474;2023-04-29T04:41:37;6.70;99.90
3792;DHT22;1911;53.768;11.474;2023-04-29T04:44:03;6.80;99.90
3792;DHT22;1911;53.768;11.474;2023-04-29T04:46:29;6.80;99.90
3792;DHT22;1911;53.768;11.474;2023-04-29T04:48:54;6.80;99.90
3792;DHT22;1911;53.768;11.474;2023-04-29T04:51:20;6.90;99.90
3792;DHT22;1911;53.768;11.474;2023-04-29T04:53:46;6.90;99.90
3792;DHT22;1911;53.768;11.474;2023-04-29T04:56:11;7.00;99.90
3792;DHT22;1911;53.768;11.474;2023-04-29T04:58:37;7.00;99.90
3792;DHT22;1911;53.768;11.474;2023-04-29T05:01:02;7.10;99.90
3792;DHT22;1911;53.768;11.474;2023-04-29T05:03:28;7.20;99.90
3792;DHT22;1911;53.768;11.474;2023-04-29T05:05:58;7.20;99.90
3792;DHT22;1911;53.768;11.474;2023-04-29T05:08:24;7.20;99.90
3792;DHT22;1911;53.768;11.474;2023-04-29T05:10:50;7.30;99.90
3792;DHT22;1911;53.768;11.474;2023-04-29T05:13:16;7.40;99.90
3792;DHT22;1911;53.768;11.474;2023-04-29T05:15:42;7.50;99.90
3792;DHT22;1911;53.768;11.474;2023-04-29T05:18:08;7.50;99.90
3792;DHT22;1911;53.768;11.474;2023-04-29T05:20:33;7.60;99.90
3792;DHT22;1911;53.768;11.474;2023-04-29T05:22:59;7.60;99.90
3792;DHT22;1911;53.768;11.474;2023-04-29T05:25:25;7.60;99.90
3792;DHT22;1911;53.768;11.474;2023-04-29T05:27:50;7.60;99.90
3792;DHT22;1911;53.768;11.474;2023-04-29T05:30:16;7.70;99.90
3792;DHT22;1911;53.768;11.474;2023-04-29T05:32:43;7.70;99.90
3792;DHT22;1911;53.768;11.474;2023-04-29T05:35:10;7.80;99.90
3792;DHT22;1911;53.768;11.474;2023-04-29T05:37:38;7.90;99.90
3792;DHT22;1911;53.768;11.474;2023-04-29T05:40:04;7.90;99.90
3792;DHT22;1911;53.768;11.474;2023-04-29T05:42:30;7.90;99.90
3792;DHT22;1911;53.768;11.474;2023-04-29T05:44:56;7.90;99.90
3792;DHT22;1911;53.768;11.474;2023-04-29T05:47:22;8.00;99.90
3792;DHT22;1911;53.768;11.474;2023-04-29T05:49:47;8.00;99.90
3792;DHT22;1911;53.768;11.474;2023-04-29T05:52:14;8.00;99.90
3792;DHT22;1911;53.768;11.474;2023-04-29T05:54:39;8.00;99.90
3792;DHT22;1911;53.768;11.474;2023-04-29T05:57:06;8.10;99.90
3792;DHT22;1911;53.768;11.474;2023-04-29T05:59:32;8.10;99.90
3792;DHT22;1911;53.768;11.474;2023-04-29T06:01:58;8.10;99.90
3792;DHT22;1911;53.768;11.474;2023-04-29T06:04:25;8.10;99.90
3792;DHT22;1911;53.768;11.474;2023-04-29T06:06:54;8.20;99.90
3792;DHT22;1911;53.768;11.474;2023-04-29T06:09:21;8.30;99.90
3792;DHT22;1911;53.768;11.474;2023-04-29T06:11:50;8.40;99.90
3792;DHT22;1911;53.768;11.474;2023-04-29T06:14:15;8.50;99.90
3792;DHT22;1911;53.768;11.474;2023-04-29T06:16:41;8.70;99.90
3792;DHT22;1911;53.768;11.474;2023-04-29T06:19:07;9.30;99.90
3792;DHT22;1911;53.768;11.474;2023-04-29T06:21:32;10.00;99.90
3792;DHT22;1911;53.768;11.474;2023-04-29T06:23:58;10.80;1.00
3792;DHT22;1911;53.768;11.474;2023-04-29T06:26:23;11.10;1.00
3792;DHT22;1911;53.768;11.474;2023-04-29T06:28:49;10.80;22.00
3792;DHT22;1911;53.768;11.474;2023-04-29T06:31:15;9.90;99.90
3792;DHT22;1911;53.768;11.474;2023-04-29T06:33:41;9.40;99.90
3792;DHT22;1911;53.768;11.474;2023-04-29T06:36:07;9.20;99.90
3792;DHT22;1911;53.768;11.474;2023-04-29T06:38:33;9.30;99.90
3792;DHT22;1911;53.768;11.474;2023-04-29T06:40:58;9.80;99.90
3792;DHT22;1911;53.768;11.474;2023-04-29T06:43:29;10.90;1.00
3792;DHT22;1911;53.768;11.474;2023-04-29T06:45:54;11.60;1.00
3792;DHT22;1911;53.768;11.474;2023-04-29T06:48:21;11.80;99.90
3792;DHT22;1911;53.768;11.474;2023-04-29T06:50:54;12.10;1.00
3792;DHT22;1911;53.768;11.474;2023-04-29T06:53:20;12.20;1.00
3792;DHT22;1911;53.768;11.474;2023-04-29T06:55:46;11.90;1.00
3792;DHT22;1911;53.768;11.474;2023-04-29T06:58:13;12.40;1.00
3792;DHT22;1911;53.768;11.474;2023-04-29T07:00:39;13.00;1.00
3792;DHT22;1911;53.768;11.474;2023-04-29T07:03:05;13.10;1.00
3792;DHT22;1911;53.768;11.474;2023-04-29T07:05:31;13.10;1.00
3792;DHT22;1911;53.768;11.474;2023-04-29T07:07:56;12.80;1.00
3792;DHT22;1911;53.768;11.474;2023-04-29T07:10:22;13.10;1.00
3792;DHT22;1911;53.768;11.474;2023-04-29T07:12:47;12.80;1.00
3792;DHT22;1911;53.768;11.474;2023-04-29T07:15:13;13.00;1.00
3792;DHT22;1911;53.768;11.474;2023-04-29T07:17:39;13.20;1.00
3792;DHT22;1911;53.768;11.474;2023-04-29T07:20:05;13.10;1.00
3792;DHT22;1911;53.768;11.474;2023-04-29T07:22:31;12.80;1.00
3792;DHT22;1911;53.768;11.474;2023-04-29T07:24:56;12.90;1.00
3792;DHT22;1911;53.768;11.474;2023-04-29T07:27:22;13.50;1.00
3792;DHT22;1911;53.768;11.474;2023-04-29T07:29:48;13.80;99.90
3792;DHT22;1911;53.768;11.474;2023-04-29T07:32:15;13.90;99.90
3792;DHT22;1911;53.768;11.474;2023-04-29T07:34:40;13.90;99.90
3792;DHT22;1911;53.768;11.474;2023-04-29T07:37:06;13.80;99.90
3792;DHT22;1911;53.768;11.474;2023-04-29T07:39:31;13.80;56.80
3792;DHT22;1911;53.768;11.474;2023-04-29T07:41:57;13.50;99.90
3792;DHT22;1911;53.768;11.474;2023-04-29T07:44:24;13.90;26.70
3792;DHT22;1911;53.768;11.474;2023-04-29T07:46:50;13.70;1.00
3792;DHT22;1911;53.768;11.474;2023-04-29T07:49:15;13.80;1.00
3792;DHT22;1911;53.768;11.474;2023-04-29T07:51:41;13.20;1.00
3792;DHT22;1911;53.768;11.474;2023-04-29T07:54:07;13.30;1.00
3792;DHT22;1911;53.768;11.474;2023-04-29T07:56:33;13.60;1.00
3792;DHT22;1911;53.768;11.474;2023-04-29T07:58:59;14.00;1.00
3792;DHT22;1911;53.768;11.474;2023-04-29T08:01:26;14.10;1.00
3792;DHT22;1911;53.768;11.474;2023-04-29T08:03:51;13.10;1.00
3792;DHT22;1911;53.768;11.474;2023-04-29T08:06:17;12.80;3.40
3792;DHT22;1911;53.768;11.474;2023-04-29T08:08:45;13.20;1.00
3792;DHT22;1911;53.768;11.474;2023-04-29T08:11:18;12.90;1.00
3792;DHT22;1911;53.768;11.474;2023-04-29T08:13:44;12.80;1.00
3792;DHT22;1911;53.768;11.474;2023-04-29T08:16:10;12.70;1.00
3792;DHT22;1911;53.768;11.474;2023-04-29T08:18:36;12.40;1.00
3792;DHT22;1911;53.768;11.474;2023-04-29T08:21:02;12.00;1.00
3792;DHT22;1911;53.768;11.474;2023-04-29T08:23:28;11.90;1.00
3792;DHT22;1911;53.768;11.474;2023-04-29T08:25:54;12.20;1.00
3792;DHT22;1911;53.768;11.474;2023-04-29T08:28:21;12.40;1.00
3792;DHT22;1911;53.768;11.474;2023-04-29T08:30:46;12.70;1.00
3792;DHT22;1911;53.768;11.474;2023-04-29T08:33:12;12.40;1.00
3792;DHT22;1911;53.768;11.474;2023-04-29T08:35:39;12.10;1.00
3792;DHT22;1911;53.768;11.474;2023-04-29T08:38:06;12.40;1.00
3792;DHT22;1911;53.768;11.474;2023-04-29T08:40:42;12.50;1.00
3792;DHT22;1911;53.768;11.474;2023-04-29T08:43:10;13.00;1.00
3792;DHT22;1911;53.768;11.474;2023-04-29T08:45:36;13.20;1.00
3792;DHT22;1911;53.768;11.474;2023-04-29T08:48:02;13.60;99.90
3792;DHT22;1911;53.768;11.474;2023-04-29T08:50:30;13.00;99.90
3792;DHT22;1911;53.768;11.474;2023-04-29T08:52:56;12.10;99.90
3792;DHT22;1911;53.768;11.474;2023-04-29T08:55:21;12.40;1.00
3792;DHT22;1911;53.768;11.474;2023-04-29T08:57:49;12.50;99.90
3792;DHT22;1911;53.768;11.474;2023-04-29T09:00:15;12.40;1.00
3792;DHT22;1911;53.768;11.474;2023-04-29T09:02:47;12.60;99.90
3792;DHT22;1911;53.768;11.474;2023-04-29T09:05:14;12.40;99.90
3792;DHT22;1911;53.768;11.474;2023-04-29T09:07:40;12.50;99.90
3792;DHT22;1911;53.768;11.474;2023-04-29T09:10:07;12.30;99.90
3792;DHT22;1911;53.768;11.474;2023-04-29T09:12:33;12.30;99.90
3792;DHT22;1911;53.768;11.474;2023-04-29T09:15:00;12.10;99.90
3792;DHT22;1911;53.768;11.474;2023-04-29T09:17:43;11.80;99.90
3792;DHT22;1911;53.768;11.474;2023-04-29T09:23:00;11.90;99.90
3792;DHT22;1911;53.768;11.474;2023-04-29T09:25:27;11.80;99.90
3792;DHT22;1911;53.768;11.474;2023-04-29T09:27:53;11.90;99.90
3792;DHT22;1911;53.768;11.474;2023-04-29T09:30:20;11.90;99.90
3792;DHT22;1911;53.768;11.474;2023-04-29T09:33:03;11.90;99.90
3792;DHT22;1911;53.768;11.474;2023-04-29T09:35:29;11.60;99.90
3792;DHT22;1911;53.768;11.474;2023-04-29T09:38:13;11.60;99.90
3792;DHT22;1911;53.768;11.474;2023-04-29T09:40:40;11.60;99.90
3792;DHT22;1911;53.768;11.474;2023-04-29T09:43:13;11.50;99.90
3792;DHT22;1911;53.768;11.474;2023-04-29T09:45:41;11.50;99.90
3792;DHT22;1911;53.768;11.474;2023-04-29T09:48:08;11.70;1.00
3792;DHT22;1911;53.768;11.474;2023-04-29T09:50:34;11.40;99.90
3792;DHT22;1911;53.768;11.474;2023-04-29T09:53:04;11.60;99.90
3792;DHT22;1911;53.768;11.474;2023-04-29T09:55:30;11.60;99.90
3792;DHT22;1911;53.768;11.474;2023-04-29T09:57:56;11.90;99.90
3792;DHT22;1911;53.768;11.474;2023-04-29T10:00:23;12.00;99.90
3792;DHT22;1911;53.768;11.474;2023-04-29T10:02:50;12.00;99.90
3792;DHT22;1911;53.768;11.474;2023-04-29T10:05:18;11.90;99.90
3792;DHT22;1911;53.768;11.474;2023-04-29T10:07:46;12.10;99.90
3792;DHT22;1911;53.768;11.474;2023-04-29T10:10:16;12.30;1.00
3792;DHT22;1911;53.768;11.474;2023-04-29T10:12:43;12.70;99.90
3792;DHT22;1911;53.768;11.474;2023-04-29T10:15:34;12.40;99.90
3792;DHT22;1911;53.768;11.474;2023-04-29T10:20:36;12.40;99.90
3792;DHT22;1911;53.768;11.474;2023-04-29T10:23:04;12.40;1.00
3792;DHT22;1911;53.768;11.474;2023-04-29T10:25:31;12.50;1.00
3792;DHT22;1911;53.768;11.474;2023-04-29T10:28:00;12.60;1.00
3792;DHT22;1911;53.768;11.474;2023-04-29T10:30:28;12.70;99.90
3792;DHT22;1911;53.768;11.474;2023-04-29T10:32:55;12.80;99.90
3792;DHT22;1911;53.768;11.474;2023-04-29T10:35:21;13.00;99.90
3792;DHT22;1911;53.768;11.474;2023-04-29T10:37:50;12.90;99.90
3792;DHT22;1911;53.768;11.474;2023-04-29T10:40:20;13.20;99.90
3792;DHT22;1911;53.768;11.474;2023-04-29T10:42:51;13.10;99.90
3792;DHT22;1911;53.768;11.474;2023-04-29T10:53:06;13.30;1.00
3792;DHT22;1911;53.768;11.474;2023-04-29T10:55:36;13.20;1.00
3792;DHT22;1911;53.768;11.474;2023-04-29T10:58:03;13.20;1.00
3792;DHT22;1911;53.768;11.474;2023-04-29T11:00:33;13.20;1.00
3792;DHT22;1911;53.768;11.474;2023-04-29T11:03:01;13.20;1.00
3792;DHT22;1911;53.768;11.474;2023-04-29T11:05:33;13.40;1.00
3792;DHT22;1911;53.768;11.474;2023-04-29T11:08:13;13.40;1.00
3792;DHT22;1911;53.768;11.474;2023-04-29T11:10:41;13.50;1.00
3792;DHT22;1911;53.768;11.474;2023-04-29T11:13:20;13.50;1.00
3792;DHT22;1911;53.768;11.474;2023-04-29T11:15:47;13.70;1.00
3792;DHT22;1911;53.768;11.474;2023-04-29T11:18:13;13.90;1.00
3792;DHT22;1911;53.768;11.474;2023-04-29T11:23:29;13.70;1.00
3792;DHT22;1911;53.768;11.474;2023-04-29T11:25:55;13.80;1.00
3792;DHT22;1911;53.768;11.474;2023-04-29T11:28:22;13.80;1.00
3792;DHT22;1911;53.768;11.474;2023-04-29T11:30:52;13.90;1.00
3792;DHT22;1911;53.768;11.474;2023-04-29T11:33:24;13.70;1.00
3792;DHT22;1911;53.768;11.474;2023-04-29T11:35:54;13.50;1.00
3792;DHT22;1911;53.768;11.474;2023-04-29T11:38:28;13.70;1.00
3792;DHT22;1911;53.768;11.474;2023-04-29T11:40:55;13.90;1.00
3792;DHT22;1911;53.768;11.474;2023-04-29T11:43:24;14.00;1.00
3792;DHT22;1911;53.768;11.474;2023-04-29T11:45:51;14.10;1.00
3792;DHT22;1911;53.768;11.474;2023-04-29T11:48:25;13.90;1.00
3792;DHT22;1911;53.768;11.474;2023-04-29T11:50:53;13.70;1.00
3792;DHT22;1911;53.768;11.474;2023-04-29T11:53:23;13.70;1.00
3792;DHT22;1911;53.768;11.474;2023-04-29T11:55:51;13.90;1.00
3792;DHT22;1911;53.768;11.474;2023-04-29T11:58:19;13.70;99.90
3792;DHT22;1911;53.768;11.474;2023-04-29T12:00:49;13.50;99.90
3792;DHT22;1911;53.768;11.474;2023-04-29T12:03:19;13.70;99.90
3792;DHT22;1911;53.768;11.474;2023-04-29T12:05:55;13.90;99.90
3792;DHT22;1911;53.768;11.474;2023-04-29T12:08:21;13.90;99.90
3792;DHT22;1911;53.768;11.474;2023-04-29T12:10:48;14.00;99.90
3792;DHT22;1911;53.768;11.474;2023-04-29T12:13:17;14.10;99.90
3792;DHT22;1911;53.768;11.474;2023-04-29T12:15:44;14.10;99.90
3792;DHT22;1911;53.768;11.474;2023-04-29T12:18:11;14.00;99.90
3792;DHT22;1911;53.768;11.474;2023-04-29T12:20:37;13.90;99.90
3792;DHT22;1911;53.768;11.474;2023-04-29T12:23:17;14.10;99.90
3792;DHT22;1911;53.768;11.474;2023-04-29T12:25:48;14.20;99.90
3792;DHT22;1911;53.768;11.474;2023-04-29T12:28:16;14.30;99.90
3792;DHT22;1911;53.768;11.474;2023-04-29T12:30:48;14.30;99.90
3792;DHT22;1911;53.768;11.474;2023-04-29T12:33:25;14.30;99.90
3792;DHT22;1911;53.768;11.474;2023-04-29T12:35:55;14.40;99.90
3792;DHT22;1911;53.768;11.474;2023-04-29T12:38:26;14.30;99.90
3792;DHT22;1911;53.768;11.474;2023-04-29T12:40:57;14.50;99.90
3792;DHT22;1911;53.768;11.474;2023-04-29T12:43:30;14.40;99.90
3792;DHT22;1911;53.768;11.474;2023-04-29T12:46:06;14.40;99.90
3792;DHT22;1911;53.768;11.474;2023-04-29T12:48:33;14.50;99.90
3792;DHT22;1911;53.768;11.474;2023-04-29T12:51:00;14.40;99.90
3792;DHT22;1911;53.768;11.474;2023-04-29T12:53:28;14.20;99.90
3792;DHT22;1911;53.768;11.474;2023-04-29T12:55:54;14.40;99.90
3792;DHT22;1911;53.768;11.474;2023-04-29T12:58:19;14.60;99.90
3792;DHT22;1911;53.768;11.474;2023-04-29T13:00:45;14.40;99.90
3792;DHT22;1911;53.768;11.474;2023-04-29T13:03:11;14.40;99.90
3792;DHT22;1911;53.768;11.474;2023-04-29T13:05:37;14.30;99.90
3792;DHT22;1911;53.768;11.474;2023-04-29T13:08:03;14.30;99.90
3792;DHT22;1911;53.768;11.474;2023-04-29T13:10:31;14.30;99.90
3792;DHT22;1911;53.768;11.474;2023-04-29T13:12:57;14.30;99.90
3792;DHT22;1911;53.768;11.474;2023-04-29T13:15:23;14.40;99.90
3792;DHT22;1911;53.768;11.474;2023-04-29T13:17:48;14.20;99.90
3792;DHT22;1911;53.768;11.474;2023-04-29T13:20:14;14.20;99.90
3792;DHT22;1911;53.768;11.474;2023-04-29T13:22:40;14.10;99.90
3792;DHT22;1911;53.768;11.474;2023-04-29T13:25:08;14.10;99.90
3792;DHT22;1911;53.768;11.474;2023-04-29T13:27:34;14.10;99.90
3792;DHT22;1911;53.768;11.474;2023-04-29T13:30:00;14.10;99.90
3792;DHT22;1911;53.768;11.474;2023-04-29T13:32:25;14.10;99.90
3792;DHT22;1911;53.768;11.474;2023-04-29T13:34:52;14.10;99.90
3792;DHT22;1911;53.768;11.474;2023-04-29T13:37:18;14.00;99.90
3792;DHT22;1911;53.768;11.474;2023-04-29T13:39:44;14.30;99.90
3792;DHT22;1911;53.768;11.474;2023-04-29T13:42:10;14.50;99.90
3792;DHT22;1911;53.768;11.474;2023-04-29T13:44:36;14.40;99.90
3792;DHT22;1911;53.768;11.474;2023-04-29T13:47:02;14.60;99.90
3792;DHT22;1911;53.768;11.474;2023-04-29T13:49:28;14.60;99.90
3792;DHT22;1911;53.768;11.474;2023-04-29T13:51:54;14.60;99.90
3792;DHT22;1911;53.768;11.474;2023-04-29T13:54:19;14.60;99.90
3792;DHT22;1911;53.768;11.474;2023-04-29T13:56:48;14.50;99.90
3792;DHT22;1911;53.768;11.474;2023-04-29T13:59:16;14.40;99.90
3792;DHT22;1911;53.768;11.474;2023-04-29T14:02:12;14.40;99.90
3792;DHT22;1911;53.768;11.474;2023-04-29T14:04:41;14.40;99.90
3792;DHT22;1911;53.768;11.474;2023-04-29T14:07:14;14.50;99.90
3792;DHT22;1911;53.768;11.474;2023-04-29T14:09:45;14.50;99.90
3792;DHT22;1911;53.768;11.474;2023-04-29T14:12:21;14.20;99.90
3792;DHT22;1911;53.768;11.474;2023-04-29T14:14:46;14.20;99.90
3792;DHT22;1911;53.768;11.474;2023-04-29T14:17:15;14.40;99.90
3792;DHT22;1911;53.768;11.474;2023-04-29T14:19:52;14.80;99.90
3792;DHT22;1911;53.768;11.474;2023-04-29T14:22:20;14.80;99.90
3792;DHT22;1911;53.768;11.474;2023-04-29T14:24:51;14.70;99.90
3792;DHT22;1911;53.768;11.474;2023-04-29T14:27:19;14.70;99.90
3792;DHT22;1911;53.768;11.474;2023-04-29T14:29:46;14.60;99.90
3792;DHT22;1911;53.768;11.474;2023-04-29T14:32:14;14.50;99.90
3792;DHT22;1911;53.768;11.474;2023-04-29T14:34:39;14.40;99.90
3792;DHT22;1911;53.768;11.474;2023-04-29T14:37:15;14.50;99.90
3792;DHT22;1911;53.768;11.474;2023-04-29T14:39:43;14.60;99.90
3792;DHT22;1911;53.768;11.474;2023-04-29T14:42:11;14.50;99.90
3792;DHT22;1911;53.768;11.474;2023-04-29T14:44:47;14.50;99.90
3792;DHT22;1911;53.768;11.474;2023-04-29T14:47:32;14.50;99.90
3792;DHT22;1911;53.768;11.474;2023-04-29T14:50:01;14.50;99.90
3792;DHT22;1911;53.768;11.474;2023-04-29T14:52:31;14.10;99.90
3792;DHT22;1911;53.768;11.474;2023-04-29T14:54:56;13.90;99.90
3792;DHT22;1911;53.768;11.474;2023-04-29T14:57:32;13.50;99.90
3792;DHT22;1911;53.768;11.474;2023-04-29T14:59:58;13.40;99.90
3792;DHT22;1911;53.768;11.474;2023-04-29T15:02:23;13.30;99.90
3792;DHT22;1911;53.768;11.474;2023-04-29T15:04:52;13.00;99.90
3792;DHT22;1911;53.768;11.474;2023-04-29T15:07:40;12.90;99.90
3792;DHT22;1911;53.768;11.474;2023-04-29T15:10:11;12.90;99.90
3792;DHT22;1911;53.768;11.474;2023-04-29T15:12:55;13.00;99.90
3792;DHT22;1911;53.768;11.474;2023-04-29T15:15:33;13.20;99.90
3792;DHT22;1911;53.768;11.474;2023-04-29T15:18:13;13.20;99.90
3792;DHT22;1911;53.768;11.474;2023-04-29T15:20:43;13.30;99.90
3792;DHT22;1911;53.768;11.474;2023-04-29T15:30:13;13.50;99.90
3792;DHT22;1911;53.768;11.474;2023-04-29T15:33:23;13.50;99.90
3792;DHT22;1911;53.768;11.474;2023-04-29T15:36:31;13.40;99.90
3792;DHT22;1911;53.768;11.474;2023-04-29T15:39:22;13.30;99.90
3792;DHT22;1911;53.768;11.474;2023-04-29T15:42:03;13.40;99.90
3792;DHT22;1911;53.768;11.474;2023-04-29T15:48:06;13.50;99.90
3792;DHT22;1911;53.768;11.474;2023-04-29T15:51:12;13.50;99.90
3792;DHT22;1911;53.768;11.474;2023-04-29T15:57:20;13.40;99.90
3792;DHT22;1911;53.768;11.474;2023-04-29T16:00:01;13.30;98.10
3792;DHT22;1911;53.768;11.474;2023-04-29T16:02:49;13.10;99.90
3792;DHT22;1911;53.768;11.474;2023-04-29T16:05:27;13.00;99.90
3792;DHT22;1911;53.768;11.474;2023-04-29T16:08:26;13.00;99.90
3792;DHT22;1911;53.768;11.474;2023-04-29T16:10:52;13.00;99.90
3792;DHT22;1911;53.768;11.474;2023-04-29T16:13:49;13.10;1.00
3792;DHT22;1911;53.768;11.474;2023-04-29T16:17:02;13.20;55.90
3792;DHT22;1911;53.768;11.474;2023-04-29T16:19:44;13.00;1.00
3792;DHT22;1911;53.768;11.474;2023-04-29T16:22:53;12.90;64.20
3792;DHT22;1911;53.768;11.474;2023-04-29T16:25:39;12.90;1.00
3792;DHT22;1911;53.768;11.474;2023-04-29T16:28:33;13.00;1.00
3792;DHT22;1911;53.768;11.474;2023-04-29T16:31:23;13.10;1.00
3792;DHT22;1911;53.768;11.474;2023-04-29T16:34:10;12.90;1.00
3792;DHT22;1911;53.768;11.474;2023-04-29T16:39:01;12.80;99.90
3792;DHT22;1911;53.768;11.474;2023-04-29T16:41:29;12.70;82.00
3792;DHT22;1911;53.768;11.474;2023-04-29T16:43:55;12.70;1.00
3792;DHT22;1911;53.768;11.474;2023-04-29T16:46:21;12.70;1.00
3792;DHT22;1911;53.768;11.474;2023-04-29T16:48:46;12.70;1.00